sensor_id;sensor_type;location;lat;lon;timestamp;pressure;altitude;pressure_sealevel;temperature;humidity
12054;BME280;5638;50.860;4.698;2022-09-09T00:00:53;100395.00;;;17.43;nan
12054;BME280;5638;50.860;4.698;2022-09-09T00:03:26;100390.38;;;17.49;nan
12054;BME280;5638;50.860;4.698;2022-09-09T00:11:09;100385.91;;;17.33;nan
12054;BME280;5638;50.860;4.698;2022-09-09T00:13:46;100369.47;;;17.31;nan
12054;BME280;5638;50.860;4.698;2022-09-09T00:16:22;100376.00;;;17.40;nan
12054;BME280;5638;50.860;4.698;2022-09-09T00:19:01;100369.00;;;17.40;nan
12054;BME280;5638;50.860;4.698;2022-09-09T00:21:48;100370.78;;;17.40;nan
12054;BME280;5638;50.860;4.698;2022-09-09T00:24:48;100355.31;;;17.35;nan
12054;BME280;5638;50.860;4.698;2022-09-09T00:30:12;100360.16;;;17.43;nan
12054;BME280;5638;50.860;4.698;2022-09-09T00:32:39;100362.56;;;17.48;nan
12054;BME280;5638;50.860;4.698;2022-09-09T00:38:02;100357.16;;;17.33;nan
12054;BME280;5638;50.860;4.698;2022-09-09T00:40:53;100352.84;;;17.32;nan
12054;BME280;5638;50.860;4.698;2022-09-09T00:43:21;100353.56;;;17.36;nan
12054;BME280;5638;50.860;4.698;2022-09-09T00:49:07;100352.38;;;17.41;nan
12054;BME280;5638;50.860;4.698;2022-09-09T00:57:28;100352.00;;;17.49;nan
12054;BME280;5638;50.860;4.698;2022-09-09T01:14:40;100343.59;;;17.42;nan
12054;BME280;5638;50.860;4.698;2022-09-09T01:22:36;100336.56;;;17.45;nan
12054;BME280;5638;50.860;4.698;2022-09-09T01:28:15;100324.41;;;17.43;nan
12054;BME280;5638;50.860;4.698;2022-09-09T01:30:42;100320.84;;;17.45;nan
12054;BME280;5638;50.860;4.698;2022-09-09T01:33:15;100321.94;;;17.40;nan
12054;BME280;5638;50.860;4.698;2022-09-09T01:36:19;100317.63;;;17.39;nan
12054;BME280;5638;50.860;4.698;2022-09-09T01:38:47;100319.41;;;17.39;nan
12054;BME280;5638;50.860;4.698;2022-09-09T01:41:13;100321.56;;;17.48;nan
12054;BME280;5638;50.860;4.698;2022-09-09T01:43:39;100319.63;;;17.52;nan
12054;BME280;5638;50.860;4.698;2022-09-09T01:46:05;100307.63;;;17.30;nan
12054;BME280;5638;50.860;4.698;2022-09-09T01:48:32;100310.72;;;17.21;nan
12054;BME280;5638;50.860;4.698;2022-09-09T01:50:58;100306.03;;;17.28;nan
12054;BME280;5638;50.860;4.698;2022-09-09T01:53:24;100308.09;;;17.21;nan
12054;BME280;5638;50.860;4.698;2022-09-09T01:56:15;100308.66;;;17.28;nan
12054;BME280;5638;50.860;4.698;2022-09-09T02:03:52;100293.81;;;17.28;nan
12054;BME280;5638;50.860;4.698;2022-09-09T02:06:30;100298.09;;;17.29;nan
12054;BME280;5638;50.860;4.698;2022-09-09T02:09:04;100300.09;;;17.41;nan
12054;BME280;5638;50.860;4.698;2022-09-09T02:11:33;100305.31;;;17.41;nan
12054;BME280;5638;50.860;4.698;2022-09-09T02:14:21;100289.53;;;17.43;nan
12054;BME280;5638;50.860;4.698;2022-09-09T02:17:02;100295.63;;;17.43;nan
12054;BME280;5638;50.860;4.698;2022-09-09T02:19:39;100296.19;;;17.33;nan
12054;BME280;5638;50.860;4.698;2022-09-09T02:22:07;100284.50;;;17.40;nan
12054;BME280;5638;50.860;4.698;2022-09-09T02:24:39;100284.19;;;17.29;nan
12054;BME280;5638;50.860;4.698;2022-09-09T02:27:08;100280.34;;;17.36;nan
12054;BME280;5638;50.860;4.698;2022-09-09T02:29:40;100287.16;;;17.38;nan
12054;BME280;5638;50.860;4.698;2022-09-09T02:32:22;100281.09;;;17.38;nan
12054;BME280;5638;50.860;4.698;2022-09-09T02:34:58;100287.19;;;17.21;nan
12054;BME280;5638;50.860;4.698;2022-09-09T02:37:35;100280.63;;;17.30;nan
12054;BME280;5638;50.860;4.698;2022-09-09T02:40:05;100293.66;;;17.31;nan
12054;BME280;5638;50.860;4.698;2022-09-09T02:42:38;100284.56;;;17.21;nan
12054;BME280;5638;50.860;4.698;2022-09-09T02:45:05;100294.09;;;17.22;nan
12054;BME280;5638;50.860;4.698;2022-09-09T02:47:38;100294.88;;;17.24;nan
12054;BME280;5638;50.860;4.698;2022-09-09T02:50:25;100304.78;;;17.17;nan
12054;BME280;5638;50.860;4.698;2022-09-09T02:53:17;100300.63;;;17.13;nan
12054;BME280;5638;50.860;4.698;2022-09-09T02:56:04;100302.66;;;17.08;nan
12054;BME280;5638;50.860;4.698;2022-09-09T02:58:31;100299.81;;;16.96;nan
12054;BME280;5638;50.860;4.698;2022-09-09T03:00:58;100306.72;;;16.97;nan
12054;BME280;5638;50.860;4.698;2022-09-09T03:03:27;100294.53;;;16.97;nan
12054;BME280;5638;50.860;4.698;2022-09-09T03:05:52;100289.91;;;16.85;nan
12054;BME280;5638;50.860;4.698;2022-09-09T03:08:18;100293.81;;;16.93;nan
12054;BME280;5638;50.860;4.698;2022-09-09T03:10:44;100293.34;;;17.03;nan
12054;BME280;5638;50.860;4.698;2022-09-09T03:13:10;100289.03;;;17.19;nan
12054;BME280;5638;50.860;4.698;2022-09-09T03:15:38;100295.66;;;17.09;nan
12054;BME280;5638;50.860;4.698;2022-09-09T03:18:04;100297.03;;;17.16;nan
12054;BME280;5638;50.860;4.698;2022-09-09T03:20:30;100292.19;;;17.08;nan
12054;BME280;5638;50.860;4.698;2022-09-09T03:22:59;100294.94;;;17.05;nan
12054;BME280;5638;50.860;4.698;2022-09-09T03:25:25;100296.56;;;16.90;nan
12054;BME280;5638;50.860;4.698;2022-09-09T03:27:52;100293.22;;;17.06;nan
12054;BME280;5638;50.860;4.698;2022-09-09T03:30:25;100295.50;;;16.95;nan
12054;BME280;5638;50.860;4.698;2022-09-09T03:32:52;100297.03;;;16.99;nan
12054;BME280;5638;50.860;4.698;2022-09-09T03:35:18;100299.56;;;16.83;nan
12054;BME280;5638;50.860;4.698;2022-09-09T03:37:44;100287.56;;;16.96;nan
12054;BME280;5638;50.860;4.698;2022-09-09T03:40:11;100299.09;;;16.92;nan
12054;BME280;5638;50.860;4.698;2022-09-09T03:42:38;100292.41;;;16.86;nan
12054;BME280;5638;50.860;4.698;2022-09-09T03:45:09;100295.59;;;16.93;nan
12054;BME280;5638;50.860;4.698;2022-09-09T03:47:36;100298.19;;;16.93;nan
12054;BME280;5638;50.860;4.698;2022-09-09T03:50:04;100270.81;;;16.83;nan
12054;BME280;5638;50.860;4.698;2022-09-09T03:52:34;100289.94;;;16.83;nan
12054;BME280;5638;50.860;4.698;2022-09-09T03:55:00;100283.88;;;16.83;nan
12054;BME280;5638;50.860;4.698;2022-09-09T03:57:27;100284.34;;;16.91;nan
12054;BME280;5638;50.860;4.698;2022-09-09T03:59:52;100280.91;;;16.90;nan
12054;BME280;5638;50.860;4.698;2022-09-09T04:02:18;100284.34;;;16.91;nan
12054;BME280;5638;50.860;4.698;2022-09-09T04:04:44;100275.06;;;16.85;nan
12054;BME280;5638;50.860;4.698;2022-09-09T04:07:10;100276.00;;;17.02;nan
12054;BME280;5638;50.860;4.698;2022-09-09T04:09:37;100270.81;;;17.00;nan
12054;BME280;5638;50.860;4.698;2022-09-09T04:12:03;100267.13;;;17.22;nan
12054;BME280;5638;50.860;4.698;2022-09-09T04:14:29;100263.31;;;16.94;nan
12054;BME280;5638;50.860;4.698;2022-09-09T04:16:55;100250.63;;;16.86;nan
12054;BME280;5638;50.860;4.698;2022-09-09T04:19:23;100258.06;;;16.94;nan
12054;BME280;5638;50.860;4.698;2022-09-09T04:21:49;100250.84;;;16.99;nan
12054;BME280;5638;50.860;4.698;2022-09-09T04:24:17;100256.22;;;16.96;nan
12054;BME280;5638;50.860;4.698;2022-09-09T04:26:43;100241.72;;;16.90;nan
12054;BME280;5638;50.860;4.698;2022-09-09T04:29:10;100239.63;;;16.80;nan
12054;BME280;5638;50.860;4.698;2022-09-09T04:31:36;100260.22;;;16.86;nan
12054;BME280;5638;50.860;4.698;2022-09-09T04:34:11;100255.81;;;16.69;nan
12054;BME280;5638;50.860;4.698;2022-09-09T04:36:37;100244.19;;;16.76;nan
12054;BME280;5638;50.860;4.698;2022-09-09T04:39:06;100250.84;;;16.82;nan
12054;BME280;5638;50.860;4.698;2022-09-09T04:41:32;100251.09;;;16.77;nan
12054;BME280;5638;50.860;4.698;2022-09-09T04:43:58;100253.53;;;16.80;nan
12054;BME280;5638;50.860;4.698;2022-09-09T04:46:25;100247.69;;;16.75;nan
12054;BME280;5638;50.860;4.698;2022-09-09T04:48:51;100262.59;;;16.73;nan
12054;BME280;5638;50.860;4.698;2022-09-09T04:51:19;100254.13;;;16.68;nan
12054;BME280;5638;50.860;4.698;2022-09-09T04:53:45;100256.78;;;16.66;nan
12054;BME280;5638;50.860;4.698;2022-09-09T04:56:17;100258.19;;;16.56;nan
12054;BME280;5638;50.860;4.698;2022-09-09T04:58:44;100245.63;;;16.46;nan
12054;BME280;5638;50.860;4.698;2022-09-09T05:01:20;100254.25;;;16.48;nan
12054;BME280;5638;50.860;4.698;2022-09-09T05:03:47;100261.16;;;16.49;nan
12054;BME280;5638;50.860;4.698;2022-09-09T05:06:16;100254.06;;;16.51;nan
12054;BME280;5638;50.860;4.698;2022-09-09T05:08:44;100269.97;;;16.46;nan
12054;BME280;5638;50.860;4.698;2022-09-09T05:11:24;100256.78;;;16.49;nan
12054;BME280;5638;50.860;4.698;2022-09-09T05:13:51;100270.97;;;16.43;nan
12054;BME280;5638;50.860;4.698;2022-09-09T05:16:18;100258.34;;;16.34;nan
12054;BME280;5638;50.860;4.698;2022-09-09T05:18:45;100260.53;;;16.43;nan
12054;BME280;5638;50.860;4.698;2022-09-09T05:21:14;100261.06;;;16.50;nan
12054;BME280;5638;50.860;4.698;2022-09-09T05:23:40;100268.31;;;16.62;nan
12054;BME280;5638;50.860;4.698;2022-09-09T05:26:13;100270.31;;;16.57;nan
12054;BME280;5638;50.860;4.698;2022-09-09T05:28:39;100270.44;;;16.54;nan
12054;BME280;5638;50.860;4.698;2022-09-09T05:31:08;100264.38;;;16.54;nan
12054;BME280;5638;50.860;4.698;2022-09-09T05:33:35;100269.31;;;16.60;nan
12054;BME280;5638;50.860;4.698;2022-09-09T05:36:05;100260.94;;;16.53;nan
12054;BME280;5638;50.860;4.698;2022-09-09T05:38:32;100260.78;;;16.56;nan
12054;BME280;5638;50.860;4.698;2022-09-09T05:40:59;100243.41;;;16.55;nan
12054;BME280;5638;50.860;4.698;2022-09-09T05:43:26;100252.94;;;16.56;nan
12054;BME280;5638;50.860;4.698;2022-09-09T05:46:20;100256.31;;;16.77;nan
12054;BME280;5638;50.860;4.698;2022-09-09T05:48:48;100254.53;;;16.95;nan
12054;BME280;5638;50.860;4.698;2022-09-09T05:51:26;100250.28;;;16.92;nan
12054;BME280;5638;50.860;4.698;2022-09-09T05:53:53;100242.69;;;16.88;nan
12054;BME280;5638;50.860;4.698;2022-09-09T05:56:23;100254.31;;;17.00;nan
12054;BME280;5638;50.860;4.698;2022-09-09T05:58:51;100261.44;;;16.96;nan
12054;BME280;5638;50.860;4.698;2022-09-09T06:01:23;100241.47;;;16.95;nan
12054;BME280;5638;50.860;4.698;2022-09-09T06:03:50;100250.94;;;16.98;nan
12054;BME280;5638;50.860;4.698;2022-09-09T06:06:22;100251.41;;;17.06;nan
12054;BME280;5638;50.860;4.698;2022-09-09T06:08:55;100256.38;;;17.10;nan
12054;BME280;5638;50.860;4.698;2022-09-09T06:11:30;100265.91;;;17.11;nan
12054;BME280;5638;50.860;4.698;2022-09-09T06:14:00;100268.91;;;17.04;nan
12054;BME280;5638;50.860;4.698;2022-09-09T06:16:28;100265.59;;;17.00;nan
12054;BME280;5638;50.860;4.698;2022-09-09T06:18:56;100272.81;;;17.12;nan
12054;BME280;5638;50.860;4.698;2022-09-09T06:21:36;100240.75;;;17.09;nan
12054;BME280;5638;50.860;4.698;2022-09-09T06:24:03;100267.22;;;17.20;nan
12054;BME280;5638;50.860;4.698;2022-09-09T06:26:38;100275.88;;;17.21;nan
12054;BME280;5638;50.860;4.698;2022-09-09T06:29:07;100258.59;;;17.01;nan
12054;BME280;5638;50.860;4.698;2022-09-09T06:31:35;100255.28;;;16.80;nan
12054;BME280;5638;50.860;4.698;2022-09-09T06:34:05;100260.97;;;16.88;nan
12054;BME280;5638;50.860;4.698;2022-09-09T06:36:35;100268.59;;;17.10;nan
12054;BME280;5638;50.860;4.698;2022-09-09T06:39:04;100253.19;;;17.21;nan
12054;BME280;5638;50.860;4.698;2022-09-09T06:41:32;100257.00;;;17.15;nan
12054;BME280;5638;50.860;4.698;2022-09-09T06:43:58;100262.31;;;17.14;nan
12054;BME280;5638;50.860;4.698;2022-09-09T06:46:27;100261.78;;;17.40;nan
12054;BME280;5638;50.860;4.698;2022-09-09T06:48:55;100258.78;;;17.48;nan
12054;BME280;5638;50.860;4.698;2022-09-09T06:51:25;100253.84;;;17.42;nan
12054;BME280;5638;50.860;4.698;2022-09-09T06:53:54;100262.16;;;17.50;nan
12054;BME280;5638;50.860;4.698;2022-09-09T06:56:39;100263.00;;;17.51;nan
12054;BME280;5638;50.860;4.698;2022-09-09T06:59:08;100242.41;;;17.45;nan
12054;BME280;5638;50.860;4.698;2022-09-09T07:01:40;100251.84;;;17.47;nan
12054;BME280;5638;50.860;4.698;2022-09-09T07:04:07;100255.47;;;17.45;nan
12054;BME280;5638;50.860;4.698;2022-09-09T07:06:38;100246.94;;;17.41;nan
12054;BME280;5638;50.860;4.698;2022-09-09T07:09:10;100251.44;;;17.39;nan
12054;BME280;5638;50.860;4.698;2022-09-09T07:11:46;100242.66;;;17.40;nan
12054;BME280;5638;50.860;4.698;2022-09-09T07:14:13;100247.06;;;17.55;nan
12054;BME280;5638;50.860;4.698;2022-09-09T07:16:41;100251.19;;;17.43;nan
12054;BME280;5638;50.860;4.698;2022-09-09T07:19:07;100258.78;;;17.48;nan
12054;BME280;5638;50.860;4.698;2022-09-09T07:21:33;100250.41;;;17.41;nan
12054;BME280;5638;50.860;4.698;2022-09-09T07:24:00;100246.56;;;17.49;nan
12054;BME280;5638;50.860;4.698;2022-09-09T07:26:30;100252.53;;;17.51;nan
12054;BME280;5638;50.860;4.698;2022-09-09T07:28:56;100249.00;;;17.52;nan
12054;BME280;5638;50.860;4.698;2022-09-09T07:31:35;100248.91;;;17.53;nan
12054;BME280;5638;50.860;4.698;2022-09-09T07:34:03;100258.13;;;17.60;nan
12054;BME280;5638;50.860;4.698;2022-09-09T07:36:36;100253.56;;;17.64;nan
12054;BME280;5638;50.860;4.698;2022-09-09T07:39:08;100252.91;;;17.60;nan
12054;BME280;5638;50.860;4.698;2022-09-09T07:41:40;100251.31;;;17.74;nan
12054;BME280;5638;50.860;4.698;2022-09-09T07:44:20;100271.88;;;17.64;nan
12054;BME280;5638;50.860;4.698;2022-09-09T07:46:47;100260.94;;;17.73;nan
12054;BME280;5638;50.860;4.698;2022-09-09T07:49:14;100264.56;;;17.71;nan
12054;BME280;5638;50.860;4.698;2022-09-09T07:51:44;100249.41;;;17.77;nan
12054;BME280;5638;50.860;4.698;2022-09-09T07:54:14;100257.03;;;17.82;nan
12054;BME280;5638;50.860;4.698;2022-09-09T07:56:41;100256.19;;;17.81;nan
12054;BME280;5638;50.860;4.698;2022-09-09T07:59:08;100246.13;;;17.89;nan
12054;BME280;5638;50.860;4.698;2022-09-09T08:01:45;100270.19;;;17.96;nan
12054;BME280;5638;50.860;4.698;2022-09-09T08:04:18;100259.47;;;17.85;nan
12054;BME280;5638;50.860;4.698;2022-09-09T08:06:51;100254.47;;;17.80;nan
12054;BME280;5638;50.860;4.698;2022-09-09T08:09:21;100249.25;;;17.96;nan
12054;BME280;5638;50.860;4.698;2022-09-09T08:11:50;100250.94;;;18.13;nan
12054;BME280;5638;50.860;4.698;2022-09-09T08:14:16;100260.91;;;18.38;nan
12054;BME280;5638;50.860;4.698;2022-09-09T08:16:46;100256.69;;;18.35;nan
12054;BME280;5638;50.860;4.698;2022-09-09T08:19:14;100256.00;;;18.16;nan
12054;BME280;5638;50.860;4.698;2022-09-09T08:21:44;100260.47;;;18.30;nan
12054;BME280;5638;50.860;4.698;2022-09-09T08:24:11;100260.03;;;18.53;nan
12054;BME280;5638;50.860;4.698;2022-09-09T08:26:44;100261.25;;;18.48;nan
12054;BME280;5638;50.860;4.698;2022-09-09T08:29:13;100252.41;;;18.64;nan
12054;BME280;5638;50.860;4.698;2022-09-09T08:31:53;100260.84;;;18.85;nan
12054;BME280;5638;50.860;4.698;2022-09-09T08:34:21;100259.34;;;18.81;nan
12054;BME280;5638;50.860;4.698;2022-09-09T08:36:49;100267.19;;;18.65;nan
12054;BME280;5638;50.860;4.698;2022-09-09T08:39:18;100256.31;;;18.73;nan
12054;BME280;5638;50.860;4.698;2022-09-09T08:48:24;100295.88;;;18.37;nan
12054;BME280;5638;50.860;4.698;2022-09-09T08:50:36;100313.44;;;18.35;nan
12054;BME280;5638;50.860;4.698;2022-09-09T08:53:16;100285.47;;;18.04;nan
12054;BME280;5638;50.860;4.698;2022-09-09T08:55:54;100287.69;;;18.11;nan
12054;BME280;5638;50.860;4.698;2022-09-09T08:58:30;100290.78;;;17.86;nan
12054;BME280;5638;50.860;4.698;2022-09-09T09:01:44;100296.19;;;17.83;nan
12054;BME280;5638;50.860;4.698;2022-09-09T09:04:28;100291.09;;;17.80;nan
12054;BME280;5638;50.860;4.698;2022-09-09T09:07:31;100295.81;;;17.74;nan
12054;BME280;5638;50.860;4.698;2022-09-09T09:10:18;100298.19;;;17.78;nan
12054;BME280;5638;50.860;4.698;2022-09-09T09:12:48;100296.56;;;17.76;nan
12054;BME280;5638;50.860;4.698;2022-09-09T09:15:21;100300.84;;;17.61;nan
12054;BME280;5638;50.860;4.698;2022-09-09T09:17:48;100311.13;;;17.64;nan
12054;BME280;5638;50.860;4.698;2022-09-09T09:20:18;100309.03;;;17.71;nan
12054;BME280;5638;50.860;4.698;2022-09-09T09:22:49;100303.34;;;17.62;nan
12054;BME280;5638;50.860;4.698;2022-09-09T09:25:23;100318.44;;;17.57;nan
12054;BME280;5638;50.860;4.698;2022-09-09T09:28:22;100303.44;;;17.61;nan
12054;BME280;5638;50.860;4.698;2022-09-09T09:31:13;100300.84;;;17.61;nan
12054;BME280;5638;50.860;4.698;2022-09-09T09:33:52;100317.00;;;17.52;nan
12054;BME280;5638;50.860;4.698;2022-09-09T09:36:24;100325.75;;;17.51;nan
12054;BME280;5638;50.860;4.698;2022-09-09T09:39:01;100319.31;;;17.40;nan
12054;BME280;5638;50.860;4.698;2022-09-09T09:43:58;100312.91;;;17.46;nan
12054;BME280;5638;50.860;4.698;2022-09-09T09:46:25;100311.47;;;17.40;nan
12054;BME280;5638;50.860;4.698;2022-09-09T09:49:04;100321.34;;;17.35;nan
12054;BME280;5638;50.860;4.698;2022-09-09T09:51:33;100322.94;;;17.38;nan
12054;BME280;5638;50.860;4.698;2022-09-09T09:54:27;100307.44;;;17.51;nan
12054;BME280;5638;50.860;4.698;2022-09-09T09:56:54;100333.06;;;17.61;nan
12054;BME280;5638;50.860;4.698;2022-09-09T09:59:32;100322.59;;;17.61;nan
12054;BME280;5638;50.860;4.698;2022-09-09T10:02:21;100324.97;;;17.66;nan
12054;BME280;5638;50.860;4.698;2022-09-09T10:05:25;100324.63;;;17.56;nan
12054;BME280;5638;50.860;4.698;2022-09-09T10:10:49;100332.72;;;17.67;nan
12054;BME280;5638;50.860;4.698;2022-09-09T10:19:06;100325.44;;;17.74;nan
12054;BME280;5638;50.860;4.698;2022-09-09T10:22:15;100331.44;;;17.59;nan
12054;BME280;5638;50.860;4.698;2022-09-09T10:25:12;100334.53;;;17.50;nan
12054;BME280;5638;50.860;4.698;2022-09-09T10:28:26;100330.34;;;17.63;nan
12054;BME280;5638;50.860;4.698;2022-09-09T10:34:26;100334.25;;;17.72;nan
12054;BME280;5638;50.860;4.698;2022-09-09T10:36:57;100318.34;;;17.59;nan
12054;BME280;5638;50.860;4.698;2022-09-09T10:39:38;100333.38;;;17.73;nan
12054;BME280;5638;50.860;4.698;2022-09-09T10:42:16;100328.75;;;17.78;nan
12054;BME280;5638;50.860;4.698;2022-09-09T10:48:30;100342.59;;;17.80;nan
12054;BME280;5638;50.860;4.698;2022-09-09T10:56:59;100352.16;;;17.97;nan
12054;BME280;5638;50.860;4.698;2022-09-09T10:59:39;100346.47;;;18.06;nan
12054;BME280;5638;50.860;4.698;2022-09-09T11:02:16;100335.06;;;18.07;nan
12054;BME280;5638;50.860;4.698;2022-09-09T11:05:19;100319.34;;;18.07;nan
12054;BME280;5638;50.860;4.698;2022-09-09T11:07:51;100333.13;;;18.10;nan
12054;BME280;5638;50.860;4.698;2022-09-09T11:16:34;100340.97;;;18.42;nan
12054;BME280;5638;50.860;4.698;2022-09-09T11:19:21;100333.47;;;18.36;nan
12054;BME280;5638;50.860;4.698;2022-09-09T11:21:52;100346.56;;;18.36;nan
12054;BME280;5638;50.860;4.698;2022-09-09T11:27:31;100347.06;;;18.58;nan
12054;BME280;5638;50.860;4.698;2022-09-09T11:30:27;100351.56;;;18.72;nan
12054;BME280;5638;50.860;4.698;2022-09-09T11:39:42;100355.50;;;19.11;nan
12054;BME280;5638;50.860;4.698;2022-09-09T11:44:38;100357.16;;;19.12;nan
12054;BME280;5638;50.860;4.698;2022-09-09T11:47:19;100339.22;;;19.20;nan
12054;BME280;5638;50.860;4.698;2022-09-09T11:49:45;100353.47;;;19.30;nan
12054;BME280;5638;50.860;4.698;2022-09-09T11:52:25;100350.28;;;19.39;nan
12054;BME280;5638;50.860;4.698;2022-09-09T11:55:25;100366.34;;;19.49;nan
12054;BME280;5638;50.860;4.698;2022-09-09T11:58:22;100357.16;;;19.42;nan
12054;BME280;5638;50.860;4.698;2022-09-09T12:00:49;100347.59;;;19.41;nan
12054;BME280;5638;50.860;4.698;2022-09-09T12:03:52;100357.53;;;19.36;nan
12054;BME280;5638;50.860;4.698;2022-09-09T12:09:46;100358.56;;;19.48;nan
12054;BME280;5638;50.860;4.698;2022-09-09T12:14:55;100337.63;;;19.76;nan
12054;BME280;5638;50.860;4.698;2022-09-09T12:17:26;100354.78;;;19.68;nan
12054;BME280;5638;50.860;4.698;2022-09-09T12:20:21;100344.41;;;19.50;nan
12054;BME280;5638;50.860;4.698;2022-09-09T12:22:58;100352.66;;;19.44;nan
12054;BME280;5638;50.860;4.698;2022-09-09T12:31:41;100343.19;;;19.86;nan
12054;BME280;5638;50.860;4.698;2022-09-09T12:34:27;100344.00;;;20.01;nan
12054;BME280;5638;50.860;4.698;2022-09-09T12:40:24;100338.56;;;20.04;nan
12054;BME280;5638;50.860;4.698;2022-09-09T12:42:48;100349.63;;;20.09;nan
12054;BME280;5638;50.860;4.698;2022-09-09T12:45:23;100341.75;;;20.09;nan
12054;BME280;5638;50.860;4.698;2022-09-09T12:48:09;100327.38;;;20.14;nan
12054;BME280;5638;50.860;4.698;2022-09-09T12:50:45;100330.28;;;20.24;nan
12054;BME280;5638;50.860;4.698;2022-09-09T12:56:03;100342.31;;;20.14;nan
12054;BME280;5638;50.860;4.698;2022-09-09T12:58:31;100340.31;;;20.32;nan
12054;BME280;5638;50.860;4.698;2022-09-09T13:01:02;100326.19;;;20.20;nan
12054;BME280;5638;50.860;4.698;2022-09-09T13:03:32;100333.41;;;20.44;nan
12054;BME280;5638;50.860;4.698;2022-09-09T13:06:12;100325.63;;;20.83;nan
12054;BME280;5638;50.860;4.698;2022-09-09T13:08:38;100336.53;;;20.77;nan
12054;BME280;5638;50.860;4.698;2022-09-09T13:11:12;100326.31;;;20.46;nan
12054;BME280;5638;50.860;4.698;2022-09-09T13:13:43;100327.81;;;20.50;nan
12054;BME280;5638;50.860;4.698;2022-09-09T13:16:24;100337.00;;;20.43;nan
12054;BME280;5638;50.860;4.698;2022-09-09T13:18:52;100318.34;;;20.33;nan
12054;BME280;5638;50.860;4.698;2022-09-09T13:21:19;100322.19;;;20.27;nan
12054;BME280;5638;50.860;4.698;2022-09-09T13:23:51;100321.41;;;20.39;nan
12054;BME280;5638;50.860;4.698;2022-09-09T13:26:26;100332.09;;;20.65;nan
12054;BME280;5638;50.860;4.698;2022-09-09T13:29:17;100330.00;;;20.70;nan
12054;BME280;5638;50.860;4.698;2022-09-09T13:31:46;100318.47;;;20.85;nan
12054;BME280;5638;50.860;4.698;2022-09-09T13:34:22;100322.72;;;21.01;nan
12054;BME280;5638;50.860;4.698;2022-09-09T13:37:00;100332.72;;;20.96;nan
12054;BME280;5638;50.860;4.698;2022-09-09T13:39:34;100329.25;;;20.95;nan
12054;BME280;5638;50.860;4.698;2022-09-09T13:42:03;100320.88;;;21.16;nan
12054;BME280;5638;50.860;4.698;2022-09-09T13:44:37;100326.56;;;21.22;nan
12054;BME280;5638;50.860;4.698;2022-09-09T13:47:18;100320.31;;;21.37;nan
12054;BME280;5638;50.860;4.698;2022-09-09T13:49:45;100312.72;;;21.33;nan
12054;BME280;5638;50.860;4.698;2022-09-09T13:52:17;100325.25;;;21.42;nan
12054;BME280;5638;50.860;4.698;2022-09-09T13:54:49;100341.03;;;21.55;nan
12054;BME280;5638;50.860;4.698;2022-09-09T13:57:19;100322.41;;;21.58;nan
12054;BME280;5638;50.860;4.698;2022-09-09T13:59:46;100325.56;;;21.63;nan
12054;BME280;5638;50.860;4.698;2022-09-09T14:02:14;100336.09;;;21.50;nan
12054;BME280;5638;50.860;4.698;2022-09-09T14:04:42;100324.28;;;21.43;nan
12054;BME280;5638;50.860;4.698;2022-09-09T14:07:14;100349.50;;;21.20;nan
12054;BME280;5638;50.860;4.698;2022-09-09T14:09:41;100343.81;;;21.13;nan
12054;BME280;5638;50.860;4.698;2022-09-09T14:12:11;100329.34;;;20.94;nan
12054;BME280;5638;50.860;4.698;2022-09-09T14:14:38;100324.63;;;20.99;nan
12054;BME280;5638;50.860;4.698;2022-09-09T14:17:04;100338.72;;;21.10;nan
12054;BME280;5638;50.860;4.698;2022-09-09T14:19:30;100329.56;;;20.91;nan
12054;BME280;5638;50.860;4.698;2022-09-09T14:21:57;100334.69;;;20.92;nan
12054;BME280;5638;50.860;4.698;2022-09-09T14:24:23;100331.28;;;20.77;nan
12054;BME280;5638;50.860;4.698;2022-09-09T14:26:49;100339.72;;;20.82;nan
12054;BME280;5638;50.860;4.698;2022-09-09T14:29:15;100319.28;;;20.73;nan
12054;BME280;5638;50.860;4.698;2022-09-09T14:31:41;100313.22;;;20.85;nan
12054;BME280;5638;50.860;4.698;2022-09-09T14:34:06;100321.69;;;21.03;nan
12054;BME280;5638;50.860;4.698;2022-09-09T14:36:32;100323.84;;;21.24;nan
12054;BME280;5638;50.860;4.698;2022-09-09T14:38:59;100319.63;;;21.21;nan
12054;BME280;5638;50.860;4.698;2022-09-09T14:41:25;100334.44;;;21.22;nan
12054;BME280;5638;50.860;4.698;2022-09-09T14:43:51;100341.16;;;21.13;nan
12054;BME280;5638;50.860;4.698;2022-09-09T14:46:19;100330.50;;;21.02;nan
12054;BME280;5638;50.860;4.698;2022-09-09T14:48:46;100347.16;;;21.03;nan
12054;BME280;5638;50.860;4.698;2022-09-09T14:51:22;100350.53;;;21.05;nan
12054;BME280;5638;50.860;4.698;2022-09-09T14:53:51;100331.25;;;20.92;nan
12054;BME280;5638;50.860;4.698;2022-09-09T14:56:23;100335.75;;;20.89;nan
12054;BME280;5638;50.860;4.698;2022-09-09T14:58:50;100323.53;;;20.88;nan
12054;BME280;5638;50.860;4.698;2022-09-09T15:01:18;100341.56;;;20.95;nan
12054;BME280;5638;50.860;4.698;2022-09-09T15:03:54;100330.00;;;21.10;nan
12054;BME280;5638;50.860;4.698;2022-09-09T15:06:22;100328.47;;;21.20;nan
12054;BME280;5638;50.860;4.698;2022-09-09T15:08:51;100320.97;;;21.27;nan
12054;BME280;5638;50.860;4.698;2022-09-09T15:11:19;100331.88;;;21.35;nan
12054;BME280;5638;50.860;4.698;2022-09-09T15:13:46;100349.16;;;21.52;nan
12054;BME280;5638;50.860;4.698;2022-09-09T15:16:18;100315.03;;;21.63;nan
12054;BME280;5638;50.860;4.698;2022-09-09T15:18:45;100301.56;;;21.68;nan
12054;BME280;5638;50.860;4.698;2022-09-09T15:21:18;100305.22;;;21.78;nan
12054;BME280;5638;50.860;4.698;2022-09-09T15:23:48;100308.81;;;21.77;nan
12054;BME280;5638;50.860;4.698;2022-09-09T15:26:15;100308.28;;;21.72;nan
12054;BME280;5638;50.860;4.698;2022-09-09T15:28:43;100310.63;;;21.63;nan
12054;BME280;5638;50.860;4.698;2022-09-09T15:31:19;100332.00;;;21.46;nan
12054;BME280;5638;50.860;4.698;2022-09-09T15:33:51;100305.63;;;21.21;nan
12054;BME280;5638;50.860;4.698;2022-09-09T15:36:22;100314.66;;;21.17;nan
12054;BME280;5638;50.860;4.698;2022-09-09T15:38:49;100311.50;;;21.11;nan
12054;BME280;5638;50.860;4.698;2022-09-09T15:41:17;100308.72;;;21.40;nan
12054;BME280;5638;50.860;4.698;2022-09-09T15:43:48;100303.03;;;21.59;nan
12054;BME280;5638;50.860;4.698;2022-09-09T15:46:28;100312.41;;;21.76;nan